sensor_id;sensor_type;location;lat;lon;timestamp;P1;durP1;ratioP1;P2;durP2;ratioP2
59972;SDS011;55298;-36.624;-64.282;2023-07-02T00:00:13;6.13;;;4.32;;
59972;SDS011;55298;-36.624;-64.282;2023-07-02T00:02:41;4.97;;;4.28;;
59972;SDS011;55298;-36.624;-64.282;2023-07-02T00:05:09;5.25;;;4.78;;
59972;SDS011;55298;-36.624;-64.282;2023-07-02T00:07:37;4.30;;;4.00;;
59972;SDS011;55298;-36.624;-64.282;2023-07-02T00:10:04;4.95;;;4.50;;
59972;SDS011;55298;-36.624;-64.282;2023-07-02T00:12:32;4.82;;;4.50;;
59972;SDS011;55298;-36.624;-64.282;2023-07-02T00:15:00;4.70;;;4.40;;
59972;SDS011;55298;-36.624;-64.282;2023-07-02T00:17:29;4.18;;;3.88;;
59972;SDS011;55298;-36.624;-64.282;2023-07-02T00:19:57;7.40;;;5.18;;
59972;SDS011;55298;-36.624;-64.282;2023-07-02T00:22:28;4.32;;;4.13;;
59972;SDS011;55298;-36.624;-64.282;2023-07-02T00:24:57;4.75;;;4.25;;
59972;SDS011;55298;-36.624;-64.282;2023-07-02T00:27:24;4.65;;;4.35;;
59972;SDS011;55298;-36.624;-64.282;2023-07-02T00:29:53;5.30;;;4.95;;
59972;SDS011;55298;-36.624;-64.282;2023-07-02T00:32:21;4.85;;;4.45;;
59972;SDS011;55298;-36.624;-64.282;2023-07-02T00:34:49;5.22;;;4.80;;
59972;SDS011;55298;-36.624;-64.282;2023-07-02T00:37:17;6.97;;;4.45;;
59972;SDS011;55298;-36.624;-64.282;2023-07-02T00:39:44;5.53;;;4.32;;
59972;SDS011;55298;-36.624;-64.282;2023-07-02T00:42:13;5.20;;;4.80;;
59972;SDS011;55298;-36.624;-64.282;2023-07-02T00:44:42;4.88;;;4.47;;
59972;SDS011;55298;-36.624;-64.282;2023-07-02T00:47:10;5.10;;;4.70;;
59972;SDS011;55298;-36.624;-64.282;2023-07-02T00:49:39;4.80;;;4.50;;
59972;SDS011;55298;-36.624;-64.282;2023-07-02T00:52:07;5.00;;;4.60;;
59972;SDS011;55298;-36.624;-64.282;2023-07-02T00:54:35;4.50;;;4.20;;
59972;SDS011;55298;-36.624;-64.282;2023-07-02T00:57:03;5.95;;;5.38;;
59972;SDS011;55298;-36.624;-64.282;2023-07-02T00:59:31;4.72;;;3.90;;
59972;SDS011;55298;-36.624;-64.282;2023-07-02T01:02:01;5.38;;;4.22;;
59972;SDS011;55298;-36.624;-64.282;2023-07-02T01:04:30;4.88;;;4.45;;
59972;SDS011;55298;-36.624;-64.282;2023-07-02T01:06:58;4.70;;;4.30;;
59972;SDS011;55298;-36.624;-64.282;2023-07-02T01:09:27;5.32;;;4.82;;
59972;SDS011;55298;-36.624;-64.282;2023-07-02T01:11:57;5.40;;;4.40;;
59972;SDS011;55298;-36.624;-64.282;2023-07-02T01:14:29;6.47;;;4.65;;
59972;SDS011;55298;-36.624;-64.282;2023-07-02T01:17:03;5.57;;;5.07;;
59972;SDS011;55298;-36.624;-64.282;2023-07-02T01:22:25;5.80;;;4.70;;
59972;SDS011;55298;-36.624;-64.282;2023-07-02T01:24:54;4.65;;;4.35;;
59972;SDS011;55298;-36.624;-64.282;2023-07-02T01:27:23;7.82;;;4.85;;
59972;SDS011;55298;-36.624;-64.282;2023-07-02T01:29:54;4.57;;;4.22;;
59972;SDS011;55298;-36.624;-64.282;2023-07-02T01:32:22;5.25;;;4.15;;
59972;SDS011;55298;-36.624;-64.282;2023-07-02T01:34:50;5.45;;;4.47;;
59972;SDS011;55298;-36.624;-64.282;2023-07-02T01:37:22;5.20;;;4.78;;
59972;SDS011;55298;-36.624;-64.282;2023-07-02T01:39:49;4.70;;;4.25;;
59972;SDS011;55298;-36.624;-64.282;2023-07-02T01:42:18;4.40;;;4.20;;
59972;SDS011;55298;-36.624;-64.282;2023-07-02T01:44:48;5.30;;;4.90;;
59972;SDS011;55298;-36.624;-64.282;2023-07-02T01:47:16;4.93;;;4.43;;
59972;SDS011;55298;-36.624;-64.282;2023-07-02T01:49:45;4.63;;;4.32;;
59972;SDS011;55298;-36.624;-64.282;2023-07-02T01:52:13;5.60;;;4.43;;
59972;SDS011;55298;-36.624;-64.282;2023-07-02T01:54:41;6.50;;;4.53;;
59972;SDS011;55298;-36.624;-64.282;2023-07-02T01:57:10;6.68;;;4.68;;
59972;SDS011;55298;-36.624;-64.282;2023-07-02T01:59:37;4.80;;;4.30;;
59972;SDS011;55298;-36.624;-64.282;2023-07-02T02:02:05;4.57;;;4.28;;
59972;SDS011;55298;-36.624;-64.282;2023-07-02T02:04:33;4.80;;;4.38;;
59972;SDS011;55298;-36.624;-64.282;2023-07-02T02:07:01;4.53;;;4.32;;
59972;SDS011;55298;-36.624;-64.282;2023-07-02T02:09:28;4.55;;;4.18;;
59972;SDS011;55298;-36.624;-64.282;2023-07-02T02:11:58;6.70;;;6.00;;
59972;SDS011;55298;-36.624;-64.282;2023-07-02T02:14:26;5.15;;;4.38;;
59972;SDS011;55298;-36.624;-64.282;2023-07-02T02:16:53;4.75;;;4.45;;
59972;SDS011;55298;-36.624;-64.282;2023-07-02T02:19:21;4.85;;;4.35;;
59972;SDS011;55298;-36.624;-64.282;2023-07-02T02:21:49;7.38;;;4.50;;
59972;SDS011;55298;-36.624;-64.282;2023-07-02T02:24:16;4.68;;;4.28;;
59972;SDS011;55298;-36.624;-64.282;2023-07-02T02:26:44;7.10;;;4.55;;
59972;SDS011;55298;-36.624;-64.282;2023-07-02T02:29:12;4.85;;;4.40;;
59972;SDS011;55298;-36.624;-64.282;2023-07-02T02:31:40;5.57;;;4.65;;
59972;SDS011;55298;-36.624;-64.282;2023-07-02T02:34:09;4.97;;;4.55;;
59972;SDS011;55298;-36.624;-64.282;2023-07-02T02:36:37;6.28;;;4.35;;
59972;SDS011;55298;-36.624;-64.282;2023-07-02T02:39:04;4.90;;;4.50;;
59972;SDS011;55298;-36.624;-64.282;2023-07-02T02:41:32;4.55;;;4.15;;
59972;SDS011;55298;-36.624;-64.282;2023-07-02T02:44:00;5.03;;;4.65;;
59972;SDS011;55298;-36.624;-64.282;2023-07-02T02:46:28;4.88;;;4.47;;
59972;SDS011;55298;-36.624;-64.282;2023-07-02T02:48:56;4.45;;;4.25;;
59972;SDS011;55298;-36.624;-64.282;2023-07-02T02:51:24;6.60;;;4.40;;
59972;SDS011;55298;-36.624;-64.282;2023-07-02T02:53:52;5.70;;;4.53;;
59972;SDS011;55298;-36.624;-64.282;2023-07-02T02:56:19;5.05;;;4.22;;
59972;SDS011;55298;-36.624;-64.282;2023-07-02T02:58:47;4.68;;;4.18;;
59972;SDS011;55298;-36.624;-64.282;2023-07-02T03:01:15;5.95;;;4.22;;
59972;SDS011;55298;-36.624;-64.282;2023-07-02T03:03:43;3.75;;;3.55;;
59972;SDS011;55298;-36.624;-64.282;2023-07-02T03:06:11;5.20;;;4.78;;
59972;SDS011;55298;-36.624;-64.282;2023-07-02T03:08:40;4.85;;;4.55;;
59972;SDS011;55298;-36.624;-64.282;2023-07-02T03:11:08;7.68;;;4.03;;
59972;SDS011;55298;-36.624;-64.282;2023-07-02T03:13:36;4.70;;;4.28;;
59972;SDS011;55298;-36.624;-64.282;2023-07-02T03:16:04;5.13;;;4.70;;
59972;SDS011;55298;-36.624;-64.282;2023-07-02T03:18:32;4.80;;;4.40;;
59972;SDS011;55298;-36.624;-64.282;2023-07-02T03:21:00;5.00;;;4.60;;
59972;SDS011;55298;-36.624;-64.282;2023-07-02T03:23:28;5.93;;;4.43;;
59972;SDS011;55298;-36.624;-64.282;2023-07-02T03:25:56;5.90;;;5.05;;
59972;SDS011;55298;-36.624;-64.282;2023-07-02T03:28:24;4.68;;;4.35;;
59972;SDS011;55298;-36.624;-64.282;2023-07-02T03:30:51;5.13;;;4.70;;
59972;SDS011;55298;-36.624;-64.282;2023-07-02T03:33:19;7.43;;;5.00;;
59972;SDS011;55298;-36.624;-64.282;2023-07-02T03:35:47;6.95;;;5.07;;
59972;SDS011;55298;-36.624;-64.282;2023-07-02T03:38:14;5.18;;;4.40;;
59972;SDS011;55298;-36.624;-64.282;2023-07-02T03:40:42;9.27;;;5.00;;
59972;SDS011;55298;-36.624;-64.282;2023-07-02T03:43:10;5.55;;;5.05;;
59972;SDS011;55298;-36.624;-64.282;2023-07-02T03:45:39;5.65;;;5.15;;
59972;SDS011;55298;-36.624;-64.282;2023-07-02T03:48:07;9.43;;;5.03;;
59972;SDS011;55298;-36.624;-64.282;2023-07-02T03:50:38;6.07;;;5.18;;
59972;SDS011;55298;-36.624;-64.282;2023-07-02T03:53:06;6.95;;;5.90;;
59972;SDS011;55298;-36.624;-64.282;2023-07-02T03:55:34;6.28;;;5.10;;
59972;SDS011;55298;-36.624;-64.282;2023-07-02T03:58:02;5.75;;;4.85;;
59972;SDS011;55298;-36.624;-64.282;2023-07-02T04:00:29;5.88;;;4.90;;
59972;SDS011;55298;-36.624;-64.282;2023-07-02T04:02:58;5.72;;;5.22;;
59972;SDS011;55298;-36.624;-64.282;2023-07-02T04:05:26;5.43;;;4.80;;
59972;SDS011;55298;-36.624;-64.282;2023-07-02T04:07:54;5.75;;;5.30;;
59972;SDS011;55298;-36.624;-64.282;2023-07-02T04:10:22;5.15;;;4.70;;
59972;SDS011;55298;-36.624;-64.282;2023-07-02T04:12:49;7.38;;;5.65;;
59972;SDS011;55298;-36.624;-64.282;2023-07-02T04:15:17;5.80;;;5.05;;
59972;SDS011;55298;-36.624;-64.282;2023-07-02T04:17:46;6.88;;;5.07;;
59972;SDS011;55298;-36.624;-64.282;2023-07-02T04:20:20;5.75;;;5.13;;
59972;SDS011;55298;-36.624;-64.282;2023-07-02T04:22:48;5.43;;;4.93;;
59972;SDS011;55298;-36.624;-64.282;2023-07-02T04:25:15;6.38;;;5.78;;
59972;SDS011;55298;-36.624;-64.282;2023-07-02T04:27:43;5.55;;;4.90;;
59972;SDS011;55298;-36.624;-64.282;2023-07-02T04:30:12;5.40;;;5.00;;
59972;SDS011;55298;-36.624;-64.282;2023-07-02T04:32:40;5.43;;;4.93;;
59972;SDS011;55298;-36.624;-64.282;2023-07-02T04:35:08;5.18;;;4.65;;
59972;SDS011;55298;-36.624;-64.282;2023-07-02T04:37:37;8.50;;;5.32;;
59972;SDS011;55298;-36.624;-64.282;2023-07-02T04:40:06;5.00;;;4.60;;
59972;SDS011;55298;-36.624;-64.282;2023-07-02T04:42:42;5.57;;;5.03;;
59972;SDS011;55298;-36.624;-64.282;2023-07-02T04:45:13;5.45;;;5.05;;
59972;SDS011;55298;-36.624;-64.282;2023-07-02T04:47:42;5.90;;;5.13;;
59972;SDS011;55298;-36.624;-64.282;2023-07-02T04:50:10;5.75;;;5.05;;
59972;SDS011;55298;-36.624;-64.282;2023-07-02T04:52:39;6.15;;;5.40;;
59972;SDS011;55298;-36.624;-64.282;2023-07-02T04:55:07;8.50;;;4.93;;
59972;SDS011;55298;-36.624;-64.282;2023-07-02T04:57:35;5.47;;;4.97;;
59972;SDS011;55298;-36.624;-64.282;2023-07-02T05:00:03;5.10;;;4.80;;
59972;SDS011;55298;-36.624;-64.282;2023-07-02T05:02:34;5.35;;;4.95;;
59972;SDS011;55298;-36.624;-64.282;2023-07-02T05:05:01;6.20;;;5.57;;
59972;SDS011;55298;-36.624;-64.282;2023-07-02T05:07:29;5.47;;;5.07;;
59972;SDS011;55298;-36.624;-64.282;2023-07-02T05:09:58;6.05;;;5.38;;
59972;SDS011;55298;-36.624;-64.282;2023-07-02T05:12:26;5.15;;;4.75;;
59972;SDS011;55298;-36.624;-64.282;2023-07-02T05:14:54;5.72;;;5.18;;
59972;SDS011;55298;-36.624;-64.282;2023-07-02T05:17:22;6.22;;;5.63;;
59972;SDS011;55298;-36.624;-64.282;2023-07-02T05:19:50;6.28;;;5.70;;
59972;SDS011;55298;-36.624;-64.282;2023-07-02T05:22:18;4.90;;;4.60;;
59972;SDS011;55298;-36.624;-64.282;2023-07-02T05:24:46;5.30;;;4.88;;
59972;SDS011;55298;-36.624;-64.282;2023-07-02T05:27:14;7.03;;;5.05;;
59972;SDS011;55298;-36.624;-64.282;2023-07-02T05:29:42;5.75;;;5.25;;
59972;SDS011;55298;-36.624;-64.282;2023-07-02T05:32:10;6.22;;;5.35;;
59972;SDS011;55298;-36.624;-64.282;2023-07-02T05:34:38;6.30;;;5.35;;
59972;SDS011;55298;-36.624;-64.282;2023-07-02T05:37:06;5.70;;;5.28;;
59972;SDS011;55298;-36.624;-64.282;2023-07-02T05:39:34;5.65;;;5.22;;
59972;SDS011;55298;-36.624;-64.282;2023-07-02T05:42:03;9.27;;;5.03;;
59972;SDS011;55298;-36.624;-64.282;2023-07-02T05:44:31;6.07;;;4.85;;
59972;SDS011;55298;-36.624;-64.282;2023-07-02T05:46:59;5.45;;;4.95;;
59972;SDS011;55298;-36.624;-64.282;2023-07-02T05:49:26;5.45;;;4.93;;
59972;SDS011;55298;-36.624;-64.282;2023-07-02T05:51:54;5.18;;;4.85;;
59972;SDS011;55298;-36.624;-64.282;2023-07-02T05:54:22;10.30;;;5.63;;
59972;SDS011;55298;-36.624;-64.282;2023-07-02T05:56:50;5.65;;;5.25;;
59972;SDS011;55298;-36.624;-64.282;2023-07-02T05:59:18;5.80;;;5.20;;
59972;SDS011;55298;-36.624;-64.282;2023-07-02T06:01:45;5.85;;;5.28;;
59972;SDS011;55298;-36.624;-64.282;2023-07-02T06:04:13;5.68;;;5.20;;
59972;SDS011;55298;-36.624;-64.282;2023-07-02T06:06:41;5.38;;;4.97;;
59972;SDS011;55298;-36.624;-64.282;2023-07-02T06:09:09;5.50;;;5.05;;
59972;SDS011;55298;-36.624;-64.282;2023-07-02T06:11:37;5.63;;;4.78;;
59972;SDS011;55298;-36.624;-64.282;2023-07-02T06:14:04;5.80;;;5.35;;
59972;SDS011;55298;-36.624;-64.282;2023-07-02T06:16:32;5.18;;;4.78;;
59972;SDS011;55298;-36.624;-64.282;2023-07-02T06:19:00;5.25;;;4.95;;
59972;SDS011;55298;-36.624;-64.282;2023-07-02T06:21:27;7.10;;;5.07;;
59972;SDS011;55298;-36.624;-64.282;2023-07-02T06:23:56;5.75;;;5.03;;
59972;SDS011;55298;-36.624;-64.282;2023-07-02T06:26:24;5.70;;;4.95;;
59972;SDS011;55298;-36.624;-64.282;2023-07-02T06:28:52;6.93;;;5.18;;
59972;SDS011;55298;-36.624;-64.282;2023-07-02T06:31:19;5.28;;;4.78;;
59972;SDS011;55298;-36.624;-64.282;2023-07-02T06:33:47;5.38;;;4.97;;
59972;SDS011;55298;-36.624;-64.282;2023-07-02T06:36:15;5.38;;;4.97;;
59972;SDS011;55298;-36.624;-64.282;2023-07-02T06:38:43;5.72;;;5.32;;
59972;SDS011;55298;-36.624;-64.282;2023-07-02T06:41:11;5.15;;;4.75;;
59972;SDS011;55298;-36.624;-64.282;2023-07-02T06:43:38;5.70;;;5.30;;
59972;SDS011;55298;-36.624;-64.282;2023-07-02T06:46:10;5.78;;;5.28;;
59972;SDS011;55298;-36.624;-64.282;2023-07-02T06:48:38;5.32;;;4.93;;
59972;SDS011;55298;-36.624;-64.282;2023-07-02T06:51:06;4.72;;;4.43;;
59972;SDS011;55298;-36.624;-64.282;2023-07-02T06:53:35;5.45;;;4.95;;
59972;SDS011;55298;-36.624;-64.282;2023-07-02T06:56:03;4.95;;;4.65;;
59972;SDS011;55298;-36.624;-64.282;2023-07-02T06:58:31;5.50;;;5.00;;
59972;SDS011;55298;-36.624;-64.282;2023-07-02T07:00:58;6.50;;;4.88;;
59972;SDS011;55298;-36.624;-64.282;2023-07-02T07:03:26;5.28;;;4.88;;
59972;SDS011;55298;-36.624;-64.282;2023-07-02T07:05:55;5.40;;;4.97;;
59972;SDS011;55298;-36.624;-64.282;2023-07-02T07:08:23;5.32;;;4.72;;
59972;SDS011;55298;-36.624;-64.282;2023-07-02T07:10:51;5.13;;;4.82;;
59972;SDS011;55298;-36.624;-64.282;2023-07-02T07:13:19;5.70;;;5.20;;
59972;SDS011;55298;-36.624;-64.282;2023-07-02T07:15:47;5.57;;;5.05;;
59972;SDS011;55298;-36.624;-64.282;2023-07-02T07:18:15;6.32;;;5.72;;
59972;SDS011;55298;-36.624;-64.282;2023-07-02T07:20:44;7.13;;;5.35;;
59972;SDS011;55298;-36.624;-64.282;2023-07-02T07:23:11;5.75;;;5.25;;
59972;SDS011;55298;-36.624;-64.282;2023-07-02T07:25:39;4.78;;;4.47;;
59972;SDS011;55298;-36.624;-64.282;2023-07-02T07:28:07;5.72;;;5.32;;
59972;SDS011;55298;-36.624;-64.282;2023-07-02T07:30:41;5.38;;;4.93;;
59972;SDS011;55298;-36.624;-64.282;2023-07-02T07:33:09;5.28;;;4.78;;
59972;SDS011;55298;-36.624;-64.282;2023-07-02T07:35:37;5.25;;;4.95;;
59972;SDS011;55298;-36.624;-64.282;2023-07-02T07:38:05;5.60;;;5.10;;
59972;SDS011;55298;-36.624;-64.282;2023-07-02T07:40:32;5.25;;;4.85;;
59972;SDS011;55298;-36.624;-64.282;2023-07-02T07:43:00;5.90;;;5.50;;
59972;SDS011;55298;-36.624;-64.282;2023-07-02T07:45:28;5.57;;;5.18;;
59972;SDS011;55298;-36.624;-64.282;2023-07-02T07:47:55;5.65;;;5.15;;
59972;SDS011;55298;-36.624;-64.282;2023-07-02T07:50:23;5.55;;;5.10;;
59972;SDS011;55298;-36.624;-64.282;2023-07-02T07:52:51;6.53;;;5.72;;
59972;SDS011;55298;-36.624;-64.282;2023-07-02T07:55:19;7.60;;;5.25;;
59972;SDS011;55298;-36.624;-64.282;2023-07-02T07:57:46;5.53;;;5.18;;
59972;SDS011;55298;-36.624;-64.282;2023-07-02T08:00:14;5.50;;;5.00;;
59972;SDS011;55298;-36.624;-64.282;2023-07-02T08:02:45;4.63;;;4.35;;
59972;SDS011;55298;-36.624;-64.282;2023-07-02T08:05:13;5.45;;;4.95;;
59972;SDS011;55298;-36.624;-64.282;2023-07-02T08:07:41;5.97;;;5.47;;
59972;SDS011;55298;-36.624;-64.282;2023-07-02T08:10:09;6.10;;;5.60;;
59972;SDS011;55298;-36.624;-64.282;2023-07-02T08:15:15;5.78;;;5.28;;
59972;SDS011;55298;-36.624;-64.282;2023-07-02T08:17:43;6.20;;;5.70;;
59972;SDS011;55298;-36.624;-64.282;2023-07-02T08:20:11;6.00;;;5.40;;
59972;SDS011;55298;-36.624;-64.282;2023-07-02T08:22:39;6.45;;;5.95;;
59972;SDS011;55298;-36.624;-64.282;2023-07-02T08:25:07;5.68;;;5.20;;
59972;SDS011;55298;-36.624;-64.282;2023-07-02T08:27:35;6.13;;;5.50;;
59972;SDS011;55298;-36.624;-64.282;2023-07-02T08:30:02;6.55;;;5.78;;
59972;SDS011;55298;-36.624;-64.282;2023-07-02T08:32:31;6.00;;;5.55;;
59972;SDS011;55298;-36.624;-64.282;2023-07-02T08:35:00;5.82;;;5.43;;
59972;SDS011;55298;-36.624;-64.282;2023-07-02T08:38:25;6.47;;;5.85;;
59972;SDS011;55298;-36.624;-64.282;2023-07-02T08:40:56;6.18;;;5.68;;
59972;SDS011;55298;-36.624;-64.282;2023-07-02T08:43:25;6.28;;;5.68;;
59972;SDS011;55298;-36.624;-64.282;2023-07-02T08:45:58;6.18;;;5.72;;
59972;SDS011;55298;-36.624;-64.282;2023-07-02T08:49:27;6.32;;;5.78;;
59972;SDS011;55298;-36.624;-64.282;2023-07-02T08:52:36;6.00;;;5.50;;
59972;SDS011;55298;-36.624;-64.282;2023-07-02T08:55:38;5.18;;;4.78;;
59972;SDS011;55298;-36.624;-64.282;2023-07-02T08:58:06;6.03;;;5.53;;
59972;SDS011;55298;-36.624;-64.282;2023-07-02T09:00:35;6.68;;;6.18;;
59972;SDS011;55298;-36.624;-64.282;2023-07-02T09:05:55;6.32;;;5.75;;
59972;SDS011;55298;-36.624;-64.282;2023-07-02T09:08:24;5.68;;;5.18;;
59972;SDS011;55298;-36.624;-64.282;2023-07-02T09:10:52;6.65;;;6.10;;
59972;SDS011;55298;-36.624;-64.282;2023-07-02T09:13:20;8.95;;;6.13;;
59972;SDS011;55298;-36.624;-64.282;2023-07-02T09:15:48;6.55;;;6.05;;
59972;SDS011;55298;-36.624;-64.282;2023-07-02T09:18:25;5.90;;;5.40;;
59972;SDS011;55298;-36.624;-64.282;2023-07-02T09:28:17;6.25;;;5.72;;
59972;SDS011;55298;-36.624;-64.282;2023-07-02T09:31:46;7.97;;;5.93;;
59972;SDS011;55298;-36.624;-64.282;2023-07-02T09:34:18;6.80;;;6.18;;
59972;SDS011;55298;-36.624;-64.282;2023-07-02T09:36:57;6.70;;;6.07;;
59972;SDS011;55298;-36.624;-64.282;2023-07-02T09:39:28;5.93;;;5.43;;
59972;SDS011;55298;-36.624;-64.282;2023-07-02T09:41:58;6.38;;;5.88;;
59972;SDS011;55298;-36.624;-64.282;2023-07-02T09:44:38;6.75;;;6.25;;
59972;SDS011;55298;-36.624;-64.282;2023-07-02T09:47:08;6.57;;;6.07;;
59972;SDS011;55298;-36.624;-64.282;2023-07-02T09:52:27;7.13;;;6.50;;
59972;SDS011;55298;-36.624;-64.282;2023-07-02T09:55:03;6.82;;;6.13;;
59972;SDS011;55298;-36.624;-64.282;2023-07-02T09:57:37;6.57;;;5.97;;
59972;SDS011;55298;-36.624;-64.282;2023-07-02T10:00:10;6.43;;;5.88;;
59972;SDS011;55298;-36.624;-64.282;2023-07-02T10:02:47;7.38;;;6.78;;
59972;SDS011;55298;-36.624;-64.282;2023-07-02T10:05:25;7.20;;;6.55;;
59972;SDS011;55298;-36.624;-64.282;2023-07-02T10:07:59;6.60;;;6.10;;
59972;SDS011;55298;-36.624;-64.282;2023-07-02T10:10:38;6.25;;;5.75;;
59972;SDS011;55298;-36.624;-64.282;2023-07-02T10:13:06;6.57;;;5.93;;
59972;SDS011;55298;-36.624;-64.282;2023-07-02T10:15:34;6.68;;;6.07;;
59972;SDS011;55298;-36.624;-64.282;2023-07-02T10:18:05;6.82;;;6.25;;
59972;SDS011;55298;-36.624;-64.282;2023-07-02T10:20:36;6.47;;;6.03;;
59972;SDS011;55298;-36.624;-64.282;2023-07-02T10:23:09;6.68;;;6.10;;
59972;SDS011;55298;-36.624;-64.282;2023-07-02T10:25:43;6.70;;;6.20;;
59972;SDS011;55298;-36.624;-64.282;2023-07-02T10:28:19;6.88;;;6.30;;
59972;SDS011;55298;-36.624;-64.282;2023-07-02T10:30:51;6.78;;;6.28;;
59972;SDS011;55298;-36.624;-64.282;2023-07-02T10:33:22;8.20;;;6.65;;
59972;SDS011;55298;-36.624;-64.282;2023-07-02T10:36:00;7.55;;;6.95;;
59972;SDS011;55298;-36.624;-64.282;2023-07-02T10:38:28;7.07;;;6.38;;
59972;SDS011;55298;-36.624;-64.282;2023-07-02T10:41:00;6.75;;;6.25;;
59972;SDS011;55298;-36.624;-64.282;2023-07-02T10:43:28;7.15;;;6.32;;
59972;SDS011;55298;-36.624;-64.282;2023-07-02T10:45:59;7.53;;;6.85;;
59972;SDS011;55298;-36.624;-64.282;2023-07-02T10:48:29;7.68;;;7.07;;
59972;SDS011;55298;-36.624;-64.282;2023-07-02T10:50:57;8.07;;;7.28;;
59972;SDS011;55298;-36.624;-64.282;2023-07-02T10:53:25;8.20;;;7.50;;
59972;SDS011;55298;-36.624;-64.282;2023-07-02T10:55:54;7.68;;;7.07;;
59972;SDS011;55298;-36.624;-64.282;2023-07-02T10:58:23;7.72;;;6.55;;
59972;SDS011;55298;-36.624;-64.282;2023-07-02T11:00:51;6.35;;;5.80;;
59972;SDS011;55298;-36.624;-64.282;2023-07-02T11:03:22;7.88;;;7.18;;
59972;SDS011;55298;-36.624;-64.282;2023-07-02T11:06:06;7.55;;;6.93;;
59972;SDS011;55298;-36.624;-64.282;2023-07-02T11:08:37;7.13;;;6.63;;
59972;SDS011;55298;-36.624;-64.282;2023-07-02T11:11:06;7.10;;;6.50;;
59972;SDS011;55298;-36.624;-64.282;2023-07-02T11:13:43;6.90;;;6.35;;
59972;SDS011;55298;-36.624;-64.282;2023-07-02T11:16:21;7.20;;;6.70;;
59972;SDS011;55298;-36.624;-64.282;2023-07-02T11:19:09;6.75;;;6.10;;
59972;SDS011;55298;-36.624;-64.282;2023-07-02T11:21:37;7.10;;;6.50;;
59972;SDS011;55298;-36.624;-64.282;2023-07-02T11:24:25;8.15;;;7.35;;
59972;SDS011;55298;-36.624;-64.282;2023-07-02T11:26:56;7.65;;;6.90;;
59972;SDS011;55298;-36.624;-64.282;2023-07-02T11:29:27;7.93;;;7.22;;
59972;SDS011;55298;-36.624;-64.282;2023-07-02T11:34:37;8.07;;;7.38;;
59972;SDS011;55298;-36.624;-64.282;2023-07-02T11:37:06;8.07;;;7.47;;
59972;SDS011;55298;-36.624;-64.282;2023-07-02T11:39:35;9.05;;;8.35;;
59972;SDS011;55298;-36.624;-64.282;2023-07-02T11:42:03;9.68;;;8.95;;
59972;SDS011;55298;-36.624;-64.282;2023-07-02T11:44:32;9.38;;;8.57;;
59972;SDS011;55298;-36.624;-64.282;2023-07-02T11:46:59;9.60;;;8.80;;
59972;SDS011;55298;-36.624;-64.282;2023-07-02T11:49:27;7.93;;;7.25;;
59972;SDS011;55298;-36.624;-64.282;2023-07-02T11:51:55;7.43;;;6.72;;
59972;SDS011;55298;-36.624;-64.282;2023-07-02T11:54:23;6.97;;;6.32;;
59972;SDS011;55298;-36.624;-64.282;2023-07-02T11:56:51;7.30;;;6.65;;
59972;SDS011;55298;-36.624;-64.282;2023-07-02T11:59:18;6.68;;;5.90;;
59972;SDS011;55298;-36.624;-64.282;2023-07-02T12:01:53;12.18;;;10.88;;
59972;SDS011;55298;-36.624;-64.282;2023-07-02T12:05:31;8.20;;;7.18;;
59972;SDS011;55298;-36.624;-64.282;2023-07-02T12:08:03;9.85;;;8.50;;
59972;SDS011;55298;-36.624;-64.282;2023-07-02T12:13:06;11.25;;;10.25;;
59972;SDS011;55298;-36.624;-64.282;2023-07-02T12:15:34;9.35;;;8.55;;
59972;SDS011;55298;-36.624;-64.282;2023-07-02T12:20:39;7.60;;;6.90;;
59972;SDS011;55298;-36.624;-64.282;2023-07-02T12:25:44;6.65;;;6.15;;
59972;SDS011;55298;-36.624;-64.282;2023-07-02T12:28:12;8.35;;;6.78;;
59972;SDS011;55298;-36.624;-64.282;2023-07-02T12:30:41;7.35;;;6.78;;
59972;SDS011;55298;-36.624;-64.282;2023-07-02T12:33:08;6.82;;;6.32;;
59972;SDS011;55298;-36.624;-64.282;2023-07-02T12:35:36;7.25;;;6.45;;
59972;SDS011;55298;-36.624;-64.282;2023-07-02T12:38:04;7.72;;;7.13;;
59972;SDS011;55298;-36.624;-64.282;2023-07-02T12:40:33;7.22;;;6.53;;
59972;SDS011;55298;-36.624;-64.282;2023-07-02T12:43:01;7.65;;;7.03;;
59972;SDS011;55298;-36.624;-64.282;2023-07-02T12:45:29;6.85;;;6.35;;
59972;SDS011;55298;-36.624;-64.282;2023-07-02T12:47:57;6.85;;;6.32;;
59972;SDS011;55298;-36.624;-64.282;2023-07-02T12:50:26;7.45;;;6.82;;
59972;SDS011;55298;-36.624;-64.282;2023-07-02T12:52:53;7.82;;;7.05;;
59972;SDS011;55298;-36.624;-64.282;2023-07-02T12:55:21;7.32;;;6.38;;
59972;SDS011;55298;-36.624;-64.282;2023-07-02T12:57:49;7.22;;;6.43;;
59972;SDS011;55298;-36.624;-64.282;2023-07-02T13:03:09;7.47;;;6.88;;
59972;SDS011;55298;-36.624;-64.282;2023-07-02T13:05:37;8.13;;;7.32;;
59972;SDS011;55298;-36.624;-64.282;2023-07-02T13:28:58;6.47;;;5.93;;
59972;SDS011;55298;-36.624;-64.282;2023-07-02T13:31:27;13.40;;;10.82;;
59972;SDS011;55298;-36.624;-64.282;2023-07-02T13:33:54;18.52;;;14.30;;
59972;SDS011;55298;-36.624;-64.282;2023-07-02T13:36:22;16.23;;;12.93;;
59972;SDS011;55298;-36.624;-64.282;2023-07-02T13:38:50;14.45;;;12.82;;
59972;SDS011;55298;-36.624;-64.282;2023-07-02T13:41:18;12.20;;;11.00;;
59972;SDS011;55298;-36.624;-64.282;2023-07-02T13:43:46;8.57;;;7.65;;
59972;SDS011;55298;-36.624;-64.282;2023-07-02T13:46:13;9.05;;;7.90;;
59972;SDS011;55298;-36.624;-64.282;2023-07-02T13:48:42;8.25;;;6.70;;
59972;SDS011;55298;-36.624;-64.282;2023-07-02T13:51:10;8.75;;;7.20;;
59972;SDS011;55298;-36.624;-64.282;2023-07-02T13:53:38;7.80;;;6.85;;
59972;SDS011;55298;-36.624;-64.282;2023-07-02T13:56:06;7.72;;;6.97;;
59972;SDS011;55298;-36.624;-64.282;2023-07-02T14:01:13;6.88;;;6.18;;
59972;SDS011;55298;-36.624;-64.282;2023-07-02T14:03:41;12.18;;;11.07;;
59972;SDS011;55298;-36.624;-64.282;2023-07-02T14:06:08;9.43;;;8.52;;
59972;SDS011;55298;-36.624;-64.282;2023-07-02T14:08:36;6.70;;;6.10;;
59972;SDS011;55298;-36.624;-64.282;2023-07-02T14:11:04;7.50;;;6.90;;
59972;SDS011;55298;-36.624;-64.282;2023-07-02T14:13:32;7.28;;;6.00;;
59972;SDS011;55298;-36.624;-64.282;2023-07-02T14:15:59;18.13;;;14.95;;
59972;SDS011;55298;-36.624;-64.282;2023-07-02T14:18:27;29.33;;;22.48;;
59972;SDS011;55298;-36.624;-64.282;2023-07-02T14:20:55;29.23;;;22.17;;
59972;SDS011;55298;-36.624;-64.282;2023-07-02T14:23:23;8.20;;;7.28;;
59972;SDS011;55298;-36.624;-64.282;2023-07-02T14:25:51;23.77;;;19.13;;
59972;SDS011;55298;-36.624;-64.282;2023-07-02T14:28:18;11.40;;;8.95;;
59972;SDS011;55298;-36.624;-64.282;2023-07-02T14:30:46;10.23;;;8.32;;
59972;SDS011;55298;-36.624;-64.282;2023-07-02T14:33:14;10.63;;;8.63;;
59972;SDS011;55298;-36.624;-64.282;2023-07-02T14:35:42;10.75;;;7.53;;
59972;SDS011;55298;-36.624;-64.282;2023-07-02T14:38:10;13.02;;;10.88;;
59972;SDS011;55298;-36.624;-64.282;2023-07-02T14:40:38;8.65;;;7.78;;
59972;SDS011;55298;-36.624;-64.282;2023-07-02T14:43:06;12.52;;;10.32;;
59972;SDS011;55298;-36.624;-64.282;2023-07-02T14:45:41;14.80;;;12.32;;
59972;SDS011;55298;-36.624;-64.282;2023-07-02T14:48:12;19.48;;;17.00;;
59972;SDS011;55298;-36.624;-64.282;2023-07-02T14:50:50;22.88;;;18.55;;
59972;SDS011;55298;-36.624;-64.282;2023-07-02T14:53:21;11.55;;;10.35;;
59972;SDS011;55298;-36.624;-64.282;2023-07-02T14:55:49;12.18;;;10.07;;
59972;SDS011;55298;-36.624;-64.282;2023-07-02T14:58:17;8.80;;;8.00;;
59972;SDS011;55298;-36.624;-64.282;2023-07-02T15:00:46;10.30;;;7.93;;
59972;SDS011;55298;-36.624;-64.282;2023-07-02T15:03:17;13.57;;;10.45;;
59972;SDS011;55298;-36.624;-64.282;2023-07-02T15:05:48;22.67;;;16.75;;
59972;SDS011;55298;-36.624;-64.282;2023-07-02T15:08:16;23.63;;;19.92;;
59972;SDS011;55298;-36.624;-64.282;2023-07-02T15:10:48;16.75;;;14.18;;
59972;SDS011;55298;-36.624;-64.282;2023-07-02T15:13:18;16.48;;;14.77;;
59972;SDS011;55298;-36.624;-64.282;2023-07-02T15:15:51;10.57;;;9.48;;